sensor_id;sensor_type;location;lat;lon;timestamp;P1;durP1;ratioP1;P2;durP2;ratioP2
64244;SDS011;50584;29.058;-110.966;2022-12-29T00:01:27;21.75;;;4.57;;
64244;SDS011;50584;29.058;-110.966;2022-12-29T00:03:53;21.25;;;6.03;;
64244;SDS011;50584;29.058;-110.966;2022-12-29T00:06:18;22.38;;;4.28;;
64244;SDS011;50584;29.058;-110.966;2022-12-29T00:08:44;16.20;;;5.65;;
64244;SDS011;50584;29.058;-110.966;2022-12-29T00:11:14;18.15;;;4.65;;
64244;SDS011;50584;29.058;-110.966;2022-12-29T00:13:40;24.08;;;4.68;;
64244;SDS011;50584;29.058;-110.966;2022-12-29T00:16:25;18.27;;;5.63;;
64244;SDS011;50584;29.058;-110.966;2022-12-29T00:18:51;26.42;;;8.02;;
64244;SDS011;50584;29.058;-110.966;2022-12-29T00:21:18;24.50;;;8.55;;
64244;SDS011;50584;29.058;-110.966;2022-12-29T00:24:03;41.95;;;11.02;;
64244;SDS011;50584;29.058;-110.966;2022-12-29T00:26:48;62.25;;;13.20;;
64244;SDS011;50584;29.058;-110.966;2022-12-29T00:29:33;58.13;;;11.13;;
64244;SDS011;50584;29.058;-110.966;2022-12-29T00:32:17;59.88;;;11.20;;
64244;SDS011;50584;29.058;-110.966;2022-12-29T00:35:01;81.55;;;14.07;;
64244;SDS011;50584;29.058;-110.966;2022-12-29T00:37:37;111.80;;;17.40;;
64244;SDS011;50584;29.058;-110.966;2022-12-29T00:40:22;150.30;;;17.65;;
64244;SDS011;50584;29.058;-110.966;2022-12-29T00:43:06;103.57;;;15.25;;
64244;SDS011;50584;29.058;-110.966;2022-12-29T00:45:50;95.10;;;14.95;;
64244;SDS011;50584;29.058;-110.966;2022-12-29T00:48:16;99.53;;;14.32;;
64244;SDS011;50584;29.058;-110.966;2022-12-29T00:51:01;88.65;;;12.48;;
64244;SDS011;50584;29.058;-110.966;2022-12-29T00:53:27;77.22;;;12.70;;
64244;SDS011;50584;29.058;-110.966;2022-12-29T00:55:53;94.05;;;13.00;;
64244;SDS011;50584;29.058;-110.966;2022-12-29T00:58:19;81.47;;;13.07;;
64244;SDS011;50584;29.058;-110.966;2022-12-29T01:00:45;82.97;;;13.55;;
64244;SDS011;50584;29.058;-110.966;2022-12-29T01:03:10;69.05;;;12.18;;
64244;SDS011;50584;29.058;-110.966;2022-12-29T01:05:36;57.90;;;11.50;;
64244;SDS011;50584;29.058;-110.966;2022-12-29T01:08:02;88.53;;;13.77;;
64244;SDS011;50584;29.058;-110.966;2022-12-29T01:10:28;65.72;;;12.82;;
64244;SDS011;50584;29.058;-110.966;2022-12-29T01:12:54;84.07;;;13.43;;
64244;SDS011;50584;29.058;-110.966;2022-12-29T01:15:19;88.13;;;14.52;;
64244;SDS011;50584;29.058;-110.966;2022-12-29T01:17:45;83.90;;;14.32;;
64244;SDS011;50584;29.058;-110.966;2022-12-29T01:20:11;59.10;;;11.20;;
64244;SDS011;50584;29.058;-110.966;2022-12-29T01:22:37;29.27;;;8.80;;
64244;SDS011;50584;29.058;-110.966;2022-12-29T01:25:05;35.42;;;9.05;;
64244;SDS011;50584;29.058;-110.966;2022-12-29T01:27:31;30.02;;;9.60;;
64244;SDS011;50584;29.058;-110.966;2022-12-29T01:29:57;51.60;;;9.63;;
64244;SDS011;50584;29.058;-110.966;2022-12-29T01:32:23;42.90;;;9.43;;
64244;SDS011;50584;29.058;-110.966;2022-12-29T01:34:48;46.35;;;9.25;;
64244;SDS011;50584;29.058;-110.966;2022-12-29T01:37:14;57.53;;;11.18;;
64244;SDS011;50584;29.058;-110.966;2022-12-29T01:39:40;53.30;;;10.60;;
64244;SDS011;50584;29.058;-110.966;2022-12-29T01:42:08;51.35;;;10.90;;
64244;SDS011;50584;29.058;-110.966;2022-12-29T01:47:18;60.22;;;12.52;;
64244;SDS011;50584;29.058;-110.966;2022-12-29T01:49:46;76.13;;;10.95;;
64244;SDS011;50584;29.058;-110.966;2022-12-29T01:52:12;51.17;;;9.55;;
64244;SDS011;50584;29.058;-110.966;2022-12-29T01:57:05;49.92;;;9.25;;
64244;SDS011;50584;29.058;-110.966;2022-12-29T01:59:34;56.03;;;9.20;;
64244;SDS011;50584;29.058;-110.966;2022-12-29T02:02:01;54.17;;;8.80;;
64244;SDS011;50584;29.058;-110.966;2022-12-29T02:04:27;44.70;;;8.52;;
64244;SDS011;50584;29.058;-110.966;2022-12-29T02:06:57;45.58;;;8.25;;
64244;SDS011;50584;29.058;-110.966;2022-12-29T02:09:23;32.78;;;8.15;;
64244;SDS011;50584;29.058;-110.966;2022-12-29T02:11:49;32.85;;;7.47;;
64244;SDS011;50584;29.058;-110.966;2022-12-29T02:14:15;40.72;;;8.15;;
64244;SDS011;50584;29.058;-110.966;2022-12-29T02:21:51;32.97;;;7.18;;
64244;SDS011;50584;29.058;-110.966;2022-12-29T02:24:30;36.58;;;6.50;;
64244;SDS011;50584;29.058;-110.966;2022-12-29T02:34:41;32.45;;;9.18;;
64244;SDS011;50584;29.058;-110.966;2022-12-29T02:42:49;35.60;;;7.90;;
64244;SDS011;50584;29.058;-110.966;2022-12-29T02:45:26;38.05;;;8.40;;
64244;SDS011;50584;29.058;-110.966;2022-12-29T02:50:32;38.90;;;7.07;;
64244;SDS011;50584;29.058;-110.966;2022-12-29T02:53:02;32.40;;;6.40;;
64244;SDS011;50584;29.058;-110.966;2022-12-29T02:55:30;37.95;;;6.07;;
64244;SDS011;50584;29.058;-110.966;2022-12-29T03:00:36;28.90;;;6.03;;
64244;SDS011;50584;29.058;-110.966;2022-12-29T03:05:57;45.03;;;9.05;;
64244;SDS011;50584;29.058;-110.966;2022-12-29T03:08:28;36.40;;;6.40;;
64244;SDS011;50584;29.058;-110.966;2022-12-29T03:13:30;27.25;;;7.55;;
64244;SDS011;50584;29.058;-110.966;2022-12-29T03:19:02;38.45;;;7.47;;
64244;SDS011;50584;29.058;-110.966;2022-12-29T03:21:39;42.00;;;8.63;;
64244;SDS011;50584;29.058;-110.966;2022-12-29T03:24:26;40.58;;;9.65;;
64244;SDS011;50584;29.058;-110.966;2022-12-29T03:26:54;41.00;;;8.80;;
64244;SDS011;50584;29.058;-110.966;2022-12-29T03:29:20;34.05;;;10.20;;
64244;SDS011;50584;29.058;-110.966;2022-12-29T03:31:47;37.63;;;10.15;;
64244;SDS011;50584;29.058;-110.966;2022-12-29T03:34:13;48.33;;;11.07;;
64244;SDS011;50584;29.058;-110.966;2022-12-29T03:36:42;31.58;;;10.45;;
64244;SDS011;50584;29.058;-110.966;2022-12-29T03:39:10;41.83;;;11.52;;
64244;SDS011;50584;29.058;-110.966;2022-12-29T03:41:43;34.33;;;10.27;;
64244;SDS011;50584;29.058;-110.966;2022-12-29T03:44:13;41.58;;;11.00;;
64244;SDS011;50584;29.058;-110.966;2022-12-29T03:46:39;60.75;;;11.15;;
64244;SDS011;50584;29.058;-110.966;2022-12-29T03:49:04;48.65;;;9.80;;
64244;SDS011;50584;29.058;-110.966;2022-12-29T03:51:30;55.88;;;10.60;;
64244;SDS011;50584;29.058;-110.966;2022-12-29T03:53:56;36.42;;;9.35;;
64244;SDS011;50584;29.058;-110.966;2022-12-29T03:56:22;48.00;;;9.10;;
64244;SDS011;50584;29.058;-110.966;2022-12-29T03:58:48;66.50;;;10.02;;
64244;SDS011;50584;29.058;-110.966;2022-12-29T04:01:13;54.47;;;8.65;;
64244;SDS011;50584;29.058;-110.966;2022-12-29T04:03:39;43.17;;;8.15;;
64244;SDS011;50584;29.058;-110.966;2022-12-29T04:06:05;54.28;;;10.77;;
64244;SDS011;50584;29.058;-110.966;2022-12-29T04:08:32;58.83;;;12.48;;
64244;SDS011;50584;29.058;-110.966;2022-12-29T04:10:58;60.25;;;12.85;;
64244;SDS011;50584;29.058;-110.966;2022-12-29T04:13:24;50.15;;;14.05;;
64244;SDS011;50584;29.058;-110.966;2022-12-29T04:15:50;54.38;;;13.52;;
64244;SDS011;50584;29.058;-110.966;2022-12-29T04:18:16;38.90;;;11.50;;
64244;SDS011;50584;29.058;-110.966;2022-12-29T04:20:41;58.70;;;12.30;;
64244;SDS011;50584;29.058;-110.966;2022-12-29T04:23:28;38.92;;;11.55;;
64244;SDS011;50584;29.058;-110.966;2022-12-29T04:25:54;41.63;;;11.63;;
64244;SDS011;50584;29.058;-110.966;2022-12-29T04:28:20;37.15;;;12.65;;
64244;SDS011;50584;29.058;-110.966;2022-12-29T04:30:48;43.85;;;12.70;;
64244;SDS011;50584;29.058;-110.966;2022-12-29T04:33:14;57.50;;;12.75;;
64244;SDS011;50584;29.058;-110.966;2022-12-29T04:35:41;38.28;;;11.95;;
64244;SDS011;50584;29.058;-110.966;2022-12-29T04:38:07;45.38;;;11.35;;
64244;SDS011;50584;29.058;-110.966;2022-12-29T04:40:32;44.08;;;12.73;;
64244;SDS011;50584;29.058;-110.966;2022-12-29T04:42:58;48.03;;;12.40;;
64244;SDS011;50584;29.058;-110.966;2022-12-29T04:45:24;37.97;;;11.43;;
64244;SDS011;50584;29.058;-110.966;2022-12-29T04:47:50;38.95;;;10.70;;
64244;SDS011;50584;29.058;-110.966;2022-12-29T04:50:16;47.92;;;10.85;;
64244;SDS011;50584;29.058;-110.966;2022-12-29T04:52:42;29.52;;;9.65;;
64244;SDS011;50584;29.058;-110.966;2022-12-29T04:55:10;40.45;;;9.60;;
64244;SDS011;50584;29.058;-110.966;2022-12-29T04:57:36;33.47;;;9.60;;
64244;SDS011;50584;29.058;-110.966;2022-12-29T05:00:02;23.15;;;8.55;;
64244;SDS011;50584;29.058;-110.966;2022-12-29T05:02:29;26.52;;;8.63;;
64244;SDS011;50584;29.058;-110.966;2022-12-29T05:04:55;21.00;;;7.00;;
64244;SDS011;50584;29.058;-110.966;2022-12-29T05:07:21;27.48;;;7.50;;
64244;SDS011;50584;29.058;-110.966;2022-12-29T05:09:46;32.50;;;8.00;;
64244;SDS011;50584;29.058;-110.966;2022-12-29T05:12:12;23.27;;;7.53;;
64244;SDS011;50584;29.058;-110.966;2022-12-29T05:14:38;20.92;;;6.60;;
64244;SDS011;50584;29.058;-110.966;2022-12-29T05:17:04;17.45;;;6.70;;
64244;SDS011;50584;29.058;-110.966;2022-12-29T05:19:30;26.13;;;6.82;;
64244;SDS011;50584;29.058;-110.966;2022-12-29T05:21:56;24.83;;;6.40;;
64244;SDS011;50584;29.058;-110.966;2022-12-29T05:24:22;16.48;;;6.30;;
64244;SDS011;50584;29.058;-110.966;2022-12-29T05:26:48;16.25;;;5.05;;
64244;SDS011;50584;29.058;-110.966;2022-12-29T05:29:14;14.80;;;5.10;;
64244;SDS011;50584;29.058;-110.966;2022-12-29T05:31:39;11.00;;;5.15;;
64244;SDS011;50584;29.058;-110.966;2022-12-29T05:34:05;15.45;;;4.35;;
64244;SDS011;50584;29.058;-110.966;2022-12-29T05:36:31;14.88;;;4.85;;
64244;SDS011;50584;29.058;-110.966;2022-12-29T05:38:57;9.88;;;4.30;;
64244;SDS011;50584;29.058;-110.966;2022-12-29T05:41:23;14.70;;;4.30;;
64244;SDS011;50584;29.058;-110.966;2022-12-29T05:43:49;7.40;;;4.15;;
64244;SDS011;50584;29.058;-110.966;2022-12-29T05:46:14;15.45;;;4.07;;
64244;SDS011;50584;29.058;-110.966;2022-12-29T05:48:40;8.95;;;3.85;;
64244;SDS011;50584;29.058;-110.966;2022-12-29T05:51:06;13.45;;;3.22;;
64244;SDS011;50584;29.058;-110.966;2022-12-29T05:53:32;13.25;;;4.40;;
64244;SDS011;50584;29.058;-110.966;2022-12-29T05:55:57;11.52;;;3.00;;
64244;SDS011;50584;29.058;-110.966;2022-12-29T05:58:23;5.13;;;2.80;;
64244;SDS011;50584;29.058;-110.966;2022-12-29T06:00:49;4.15;;;2.35;;
64244;SDS011;50584;29.058;-110.966;2022-12-29T06:03:15;11.55;;;1.83;;
64244;SDS011;50584;29.058;-110.966;2022-12-29T06:05:41;3.00;;;1.80;;
64244;SDS011;50584;29.058;-110.966;2022-12-29T06:08:06;3.45;;;1.80;;
64244;SDS011;50584;29.058;-110.966;2022-12-29T06:10:32;10.27;;;3.88;;
64244;SDS011;50584;29.058;-110.966;2022-12-29T06:12:58;27.10;;;10.52;;
64244;SDS011;50584;29.058;-110.966;2022-12-29T06:15:24;27.38;;;11.45;;
64244;SDS011;50584;29.058;-110.966;2022-12-29T06:17:49;29.83;;;11.57;;
64244;SDS011;50584;29.058;-110.966;2022-12-29T06:20:17;20.27;;;6.18;;
64244;SDS011;50584;29.058;-110.966;2022-12-29T06:22:43;9.90;;;3.80;;
64244;SDS011;50584;29.058;-110.966;2022-12-29T06:25:10;8.85;;;3.20;;
64244;SDS011;50584;29.058;-110.966;2022-12-29T06:27:36;12.13;;;2.90;;
64244;SDS011;50584;29.058;-110.966;2022-12-29T06:30:02;3.85;;;2.63;;
64244;SDS011;50584;29.058;-110.966;2022-12-29T06:32:28;4.72;;;2.63;;
64244;SDS011;50584;29.058;-110.966;2022-12-29T06:34:54;11.63;;;3.30;;
64244;SDS011;50584;29.058;-110.966;2022-12-29T06:37:19;6.38;;;2.50;;
64244;SDS011;50584;29.058;-110.966;2022-12-29T06:39:45;7.50;;;3.45;;
64244;SDS011;50584;29.058;-110.966;2022-12-29T06:42:11;2.95;;;2.42;;
64244;SDS011;50584;29.058;-110.966;2022-12-29T06:44:37;4.68;;;2.50;;
64244;SDS011;50584;29.058;-110.966;2022-12-29T06:47:03;3.15;;;2.78;;
64244;SDS011;50584;29.058;-110.966;2022-12-29T06:49:29;5.13;;;2.75;;
64244;SDS011;50584;29.058;-110.966;2022-12-29T06:51:54;6.75;;;2.80;;
64244;SDS011;50584;29.058;-110.966;2022-12-29T06:54:20;9.38;;;2.92;;
64244;SDS011;50584;29.058;-110.966;2022-12-29T06:56:46;13.77;;;2.97;;
64244;SDS011;50584;29.058;-110.966;2022-12-29T06:59:12;3.63;;;2.67;;
64244;SDS011;50584;29.058;-110.966;2022-12-29T07:01:38;4.60;;;2.60;;
64244;SDS011;50584;29.058;-110.966;2022-12-29T07:04:03;4.00;;;2.42;;
64244;SDS011;50584;29.058;-110.966;2022-12-29T07:06:29;3.63;;;2.33;;
64244;SDS011;50584;29.058;-110.966;2022-12-29T07:08:55;4.40;;;2.33;;
64244;SDS011;50584;29.058;-110.966;2022-12-29T07:11:22;3.38;;;2.30;;
64244;SDS011;50584;29.058;-110.966;2022-12-29T07:13:48;4.80;;;2.35;;
64244;SDS011;50584;29.058;-110.966;2022-12-29T07:16:14;8.57;;;2.20;;
64244;SDS011;50584;29.058;-110.966;2022-12-29T07:18:40;3.35;;;2.30;;
64244;SDS011;50584;29.058;-110.966;2022-12-29T07:21:06;7.70;;;2.70;;
64244;SDS011;50584;29.058;-110.966;2022-12-29T07:23:31;3.60;;;1.92;;
64244;SDS011;50584;29.058;-110.966;2022-12-29T07:26:04;5.88;;;2.17;;
64244;SDS011;50584;29.058;-110.966;2022-12-29T07:28:31;6.05;;;2.58;;
64244;SDS011;50584;29.058;-110.966;2022-12-29T07:31:00;7.80;;;2.20;;
64244;SDS011;50584;29.058;-110.966;2022-12-29T07:33:29;14.70;;;2.05;;
64244;SDS011;50584;29.058;-110.966;2022-12-29T07:35:55;11.65;;;2.30;;
64244;SDS011;50584;29.058;-110.966;2022-12-29T07:38:21;7.78;;;1.83;;
64244;SDS011;50584;29.058;-110.966;2022-12-29T07:40:47;7.90;;;2.25;;
64244;SDS011;50584;29.058;-110.966;2022-12-29T07:43:13;1.80;;;1.70;;
64244;SDS011;50584;29.058;-110.966;2022-12-29T07:45:38;11.00;;;2.78;;
64244;SDS011;50584;29.058;-110.966;2022-12-29T07:48:04;3.28;;;2.45;;
64244;SDS011;50584;29.058;-110.966;2022-12-29T07:50:37;6.32;;;2.13;;
64244;SDS011;50584;29.058;-110.966;2022-12-29T07:53:03;5.28;;;2.00;;
64244;SDS011;50584;29.058;-110.966;2022-12-29T07:55:29;9.52;;;2.05;;
64244;SDS011;50584;29.058;-110.966;2022-12-29T07:57:55;2.50;;;2.33;;
64244;SDS011;50584;29.058;-110.966;2022-12-29T08:00:21;6.70;;;2.40;;
64244;SDS011;50584;29.058;-110.966;2022-12-29T08:02:47;8.07;;;2.28;;
64244;SDS011;50584;29.058;-110.966;2022-12-29T08:05:13;3.85;;;2.70;;
64244;SDS011;50584;29.058;-110.966;2022-12-29T08:07:42;4.10;;;2.22;;
64244;SDS011;50584;29.058;-110.966;2022-12-29T08:10:08;4.28;;;2.58;;
64244;SDS011;50584;29.058;-110.966;2022-12-29T08:12:34;13.07;;;3.03;;
64244;SDS011;50584;29.058;-110.966;2022-12-29T08:14:59;3.20;;;2.70;;
64244;SDS011;50584;29.058;-110.966;2022-12-29T08:17:25;11.98;;;3.42;;
64244;SDS011;50584;29.058;-110.966;2022-12-29T08:19:51;9.73;;;3.10;;
64244;SDS011;50584;29.058;-110.966;2022-12-29T08:22:17;8.30;;;3.35;;
64244;SDS011;50584;29.058;-110.966;2022-12-29T08:24:43;9.85;;;2.90;;
64244;SDS011;50584;29.058;-110.966;2022-12-29T08:27:08;2.63;;;2.42;;
64244;SDS011;50584;29.058;-110.966;2022-12-29T08:29:34;2.97;;;2.78;;
64244;SDS011;50584;29.058;-110.966;2022-12-29T08:32:00;6.88;;;2.70;;
64244;SDS011;50584;29.058;-110.966;2022-12-29T08:34:26;5.72;;;2.92;;
64244;SDS011;50584;29.058;-110.966;2022-12-29T08:36:51;5.65;;;2.90;;
64244;SDS011;50584;29.058;-110.966;2022-12-29T08:39:17;4.28;;;2.50;;
64244;SDS011;50584;29.058;-110.966;2022-12-29T08:41:43;8.02;;;3.08;;
64244;SDS011;50584;29.058;-110.966;2022-12-29T08:44:09;11.43;;;3.05;;
64244;SDS011;50584;29.058;-110.966;2022-12-29T08:46:35;8.05;;;2.92;;
64244;SDS011;50584;29.058;-110.966;2022-12-29T08:49:00;7.40;;;3.20;;
64244;SDS011;50584;29.058;-110.966;2022-12-29T08:51:26;24.38;;;3.58;;
64244;SDS011;50584;29.058;-110.966;2022-12-29T08:53:52;12.55;;;3.33;;
64244;SDS011;50584;29.058;-110.966;2022-12-29T08:56:18;11.45;;;3.50;;
64244;SDS011;50584;29.058;-110.966;2022-12-29T08:58:44;13.27;;;3.28;;
64244;SDS011;50584;29.058;-110.966;2022-12-29T09:01:10;15.90;;;3.65;;
64244;SDS011;50584;29.058;-110.966;2022-12-29T09:03:36;16.77;;;3.85;;
64244;SDS011;50584;29.058;-110.966;2022-12-29T09:06:01;12.32;;;3.85;;
64244;SDS011;50584;29.058;-110.966;2022-12-29T09:08:27;28.75;;;4.45;;
64244;SDS011;50584;29.058;-110.966;2022-12-29T09:10:53;16.58;;;4.32;;
64244;SDS011;50584;29.058;-110.966;2022-12-29T09:13:19;12.05;;;3.80;;
64244;SDS011;50584;29.058;-110.966;2022-12-29T09:15:45;17.88;;;4.55;;
64244;SDS011;50584;29.058;-110.966;2022-12-29T09:18:11;7.65;;;4.15;;
64244;SDS011;50584;29.058;-110.966;2022-12-29T09:20:37;14.68;;;4.28;;
64244;SDS011;50584;29.058;-110.966;2022-12-29T09:23:03;9.75;;;3.78;;
64244;SDS011;50584;29.058;-110.966;2022-12-29T09:25:31;9.90;;;3.95;;
64244;SDS011;50584;29.058;-110.966;2022-12-29T09:27:57;13.30;;;4.57;;
64244;SDS011;50584;29.058;-110.966;2022-12-29T09:30:23;8.05;;;3.70;;
64244;SDS011;50584;29.058;-110.966;2022-12-29T09:32:49;9.68;;;3.53;;
64244;SDS011;50584;29.058;-110.966;2022-12-29T09:35:15;22.15;;;3.75;;
64244;SDS011;50584;29.058;-110.966;2022-12-29T09:37:42;7.15;;;3.13;;
64244;SDS011;50584;29.058;-110.966;2022-12-29T09:40:11;6.60;;;3.47;;
64244;SDS011;50584;29.058;-110.966;2022-12-29T09:43:05;10.88;;;3.67;;
64244;SDS011;50584;29.058;-110.966;2022-12-29T09:45:44;4.28;;;3.20;;
64244;SDS011;50584;29.058;-110.966;2022-12-29T09:48:14;3.53;;;3.25;;
64244;SDS011;50584;29.058;-110.966;2022-12-29T09:50:42;3.63;;;3.05;;
64244;SDS011;50584;29.058;-110.966;2022-12-29T09:55:51;3.60;;;3.30;;
64244;SDS011;50584;29.058;-110.966;2022-12-29T09:58:24;8.23;;;3.50;;
64244;SDS011;50584;29.058;-110.966;2022-12-29T10:00:59;10.85;;;3.63;;
64244;SDS011;50584;29.058;-110.966;2022-12-29T10:03:35;5.90;;;3.20;;
64244;SDS011;50584;29.058;-110.966;2022-12-29T10:06:17;11.57;;;3.60;;
64244;SDS011;50584;29.058;-110.966;2022-12-29T10:13:43;3.22;;;2.97;;
64244;SDS011;50584;29.058;-110.966;2022-12-29T10:16:20;3.95;;;3.40;;
64244;SDS011;50584;29.058;-110.966;2022-12-29T10:24:03;10.77;;;4.07;;
64244;SDS011;50584;29.058;-110.966;2022-12-29T10:26:36;9.57;;;3.50;;
64244;SDS011;50584;29.058;-110.966;2022-12-29T10:29:04;10.75;;;3.65;;
64244;SDS011;50584;29.058;-110.966;2022-12-29T10:34:26;7.22;;;3.40;;
64244;SDS011;50584;29.058;-110.966;2022-12-29T10:36:54;8.63;;;3.13;;
64244;SDS011;50584;29.058;-110.966;2022-12-29T10:39:38;7.47;;;3.33;;
64244;SDS011;50584;29.058;-110.966;2022-12-29T10:42:11;7.13;;;3.05;;
64244;SDS011;50584;29.058;-110.966;2022-12-29T10:44:38;5.72;;;3.30;;
64244;SDS011;50584;29.058;-110.966;2022-12-29T10:47:06;5.82;;;3.35;;
64244;SDS011;50584;29.058;-110.966;2022-12-29T10:49:36;11.50;;;3.15;;
64244;SDS011;50584;29.058;-110.966;2022-12-29T10:52:02;8.90;;;3.35;;
64244;SDS011;50584;29.058;-110.966;2022-12-29T10:54:33;6.90;;;3.25;;
64244;SDS011;50584;29.058;-110.966;2022-12-29T10:57:09;4.93;;;3.42;;
64244;SDS011;50584;29.058;-110.966;2022-12-29T10:59:36;6.47;;;3.13;;
64244;SDS011;50584;29.058;-110.966;2022-12-29T11:07:18;8.23;;;2.80;;
64244;SDS011;50584;29.058;-110.966;2022-12-29T11:09:44;4.25;;;2.72;;
64244;SDS011;50584;29.058;-110.966;2022-12-29T11:12:22;8.30;;;2.70;;
64244;SDS011;50584;29.058;-110.966;2022-12-29T11:15:00;6.57;;;2.95;;
64244;SDS011;50584;29.058;-110.966;2022-12-29T11:17:26;6.55;;;2.70;;
64244;SDS011;50584;29.058;-110.966;2022-12-29T11:19:52;3.90;;;2.75;;
64244;SDS011;50584;29.058;-110.966;2022-12-29T11:22:25;3.85;;;2.47;;
64244;SDS011;50584;29.058;-110.966;2022-12-29T11:24:52;10.55;;;2.80;;
64244;SDS011;50584;29.058;-110.966;2022-12-29T11:27:20;7.95;;;3.08;;
64244;SDS011;50584;29.058;-110.966;2022-12-29T11:29:48;7.32;;;3.00;;
64244;SDS011;50584;29.058;-110.966;2022-12-29T11:32:19;9.45;;;3.08;;
64244;SDS011;50584;29.058;-110.966;2022-12-29T11:34:45;8.07;;;3.58;;
64244;SDS011;50584;29.058;-110.966;2022-12-29T11:37:30;4.72;;;3.20;;
64244;SDS011;50584;29.058;-110.966;2022-12-29T11:40:00;6.65;;;2.80;;
64244;SDS011;50584;29.058;-110.966;2022-12-29T11:43:02;12.90;;;2.85;;
64244;SDS011;50584;29.058;-110.966;2022-12-29T11:45:26;2.63;;;2.42;;
64244;SDS011;50584;29.058;-110.966;2022-12-29T11:47:53;5.70;;;2.60;;
64244;SDS011;50584;29.058;-110.966;2022-12-29T11:50:22;6.18;;;2.45;;
64244;SDS011;50584;29.058;-110.966;2022-12-29T11:52:50;6.53;;;2.25;;
64244;SDS011;50584;29.058;-110.966;2022-12-29T11:55:23;3.15;;;2.83;;
64244;SDS011;50584;29.058;-110.966;2022-12-29T11:57:50;5.45;;;2.47;;
64244;SDS011;50584;29.058;-110.966;2022-12-29T12:00:21;8.90;;;2.58;;
64244;SDS011;50584;29.058;-110.966;2022-12-29T12:02:57;3.00;;;2.78;;
64244;SDS011;50584;29.058;-110.966;2022-12-29T12:05:37;7.78;;;2.70;;
64244;SDS011;50584;29.058;-110.966;2022-12-29T12:08:10;5.78;;;2.65;;
64244;SDS011;50584;29.058;-110.966;2022-12-29T12:15:52;5.30;;;2.60;;
64244;SDS011;50584;29.058;-110.966;2022-12-29T12:18:53;6.72;;;3.13;;
64244;SDS011;50584;29.058;-110.966;2022-12-29T12:21:18;5.53;;;3.10;;
64244;SDS011;50584;29.058;-110.966;2022-12-29T12:26:32;3.28;;;2.60;;
64244;SDS011;50584;29.058;-110.966;2022-12-29T12:29:14;5.90;;;2.67;;
64244;SDS011;50584;29.058;-110.966;2022-12-29T12:34:08;10.20;;;2.80;;
64244;SDS011;50584;29.058;-110.966;2022-12-29T12:36:49;5.90;;;3.17;;
64244;SDS011;50584;29.058;-110.966;2022-12-29T12:39:26;3.70;;;2.42;;
64244;SDS011;50584;29.058;-110.966;2022-12-29T12:44:41;7.75;;;2.75;;
64244;SDS011;50584;29.058;-110.966;2022-12-29T12:48:14;4.13;;;2.85;;
64244;SDS011;50584;29.058;-110.966;2022-12-29T12:50:13;4.38;;;3.10;;
64244;SDS011;50584;29.058;-110.966;2022-12-29T12:57:50;4.00;;;2.63;;
64244;SDS011;50584;29.058;-110.966;2022-12-29T13:00:18;7.47;;;2.33;;
64244;SDS011;50584;29.058;-110.966;2022-12-29T13:05:20;3.83;;;2.40;;
64244;SDS011;50584;29.058;-110.966;2022-12-29T13:15:49;7.03;;;2.58;;
64244;SDS011;50584;29.058;-110.966;2022-12-29T13:18:26;9.35;;;2.53;;
64244;SDS011;50584;29.058;-110.966;2022-12-29T13:23:22;8.85;;;2.92;;
64244;SDS011;50584;29.058;-110.966;2022-12-29T13:25:53;3.75;;;2.28;;
64244;SDS011;50584;29.058;-110.966;2022-12-29T13:28:26;6.30;;;3.47;;
64244;SDS011;50584;29.058;-110.966;2022-12-29T13:36:09;15.50;;;2.70;;
64244;SDS011;50584;29.058;-110.966;2022-12-29T13:38:39;5.18;;;2.30;;
64244;SDS011;50584;29.058;-110.966;2022-12-29T13:41:07;5.63;;;2.20;;
64244;SDS011;50584;29.058;-110.966;2022-12-29T13:43:34;5.18;;;2.13;;
64244;SDS011;50584;29.058;-110.966;2022-12-29T13:46:23;6.40;;;2.40;;
64244;SDS011;50584;29.058;-110.966;2022-12-29T13:48:58;3.03;;;2.03;;
64244;SDS011;50584;29.058;-110.966;2022-12-29T13:51:25;5.82;;;2.20;;
64244;SDS011;50584;29.058;-110.966;2022-12-29T13:56:19;5.70;;;2.35;;
64244;SDS011;50584;29.058;-110.966;2022-12-29T14:04:20;3.10;;;2.20;;
64244;SDS011;50584;29.058;-110.966;2022-12-29T14:06:46;6.70;;;2.53;;
64244;SDS011;50584;29.058;-110.966;2022-12-29T14:09:34;7.10;;;2.63;;
64244;SDS011;50584;29.058;-110.966;2022-12-29T14:12:18;4.55;;;2.60;;
64244;SDS011;50584;29.058;-110.966;2022-12-29T14:14:44;7.22;;;2.97;;
64244;SDS011;50584;29.058;-110.966;2022-12-29T14:17:10;3.20;;;2.20;;
64244;SDS011;50584;29.058;-110.966;2022-12-29T14:19:41;4.88;;;2.70;;
64244;SDS011;50584;29.058;-110.966;2022-12-29T14:22:07;10.18;;;2.92;;
64244;SDS011;50584;29.058;-110.966;2022-12-29T14:34:51;21.27;;;8.40;;
64244;SDS011;50584;29.058;-110.966;2022-12-29T14:37:30;12.77;;;4.68;;
64244;SDS011;50584;29.058;-110.966;2022-12-29T14:42:41;9.77;;;3.75;;
64244;SDS011;50584;29.058;-110.966;2022-12-29T14:52:41;19.88;;;5.72;;
64244;SDS011;50584;29.058;-110.966;2022-12-29T14:57:41;17.27;;;6.50;;
64244;SDS011;50584;29.058;-110.966;2022-12-29T15:02:36;16.35;;;6.05;;
64244;SDS011;50584;29.058;-110.966;2022-12-29T15:05:03;10.60;;;5.25;;
64244;SDS011;50584;29.058;-110.966;2022-12-29T15:07:30;15.15;;;5.15;;
64244;SDS011;50584;29.058;-110.966;2022-12-29T15:10:05;11.02;;;5.63;;
64244;SDS011;50584;29.058;-110.966;2022-12-29T15:12:45;16.75;;;4.43;;
64244;SDS011;50584;29.058;-110.966;2022-12-29T15:17:38;7.43;;;4.10;;
64244;SDS011;50584;29.058;-110.966;2022-12-29T15:22:45;15.48;;;4.32;;
64244;SDS011;50584;29.058;-110.966;2022-12-29T15:25:16;16.77;;;4.65;;
64244;SDS011;50584;29.058;-110.966;2022-12-29T15:27:43;18.63;;;4.82;;
64244;SDS011;50584;29.058;-110.966;2022-12-29T15:30:13;9.20;;;4.30;;
64244;SDS011;50584;29.058;-110.966;2022-12-29T15:32:40;10.93;;;4.28;;
64244;SDS011;50584;29.058;-110.966;2022-12-29T15:37:49;37.63;;;16.35;;
64244;SDS011;50584;29.058;-110.966;2022-12-29T15:40:22;22.73;;;9.05;;
64244;SDS011;50584;29.058;-110.966;2022-12-29T15:45:33;32.97;;;8.65;;
64244;SDS011;50584;29.058;-110.966;2022-12-29T15:48:00;27.73;;;7.03;;
64244;SDS011;50584;29.058;-110.966;2022-12-29T15:50:30;56.25;;;11.73;;
64244;SDS011;50584;29.058;-110.966;2022-12-29T15:52:56;14.98;;;4.68;;
64244;SDS011;50584;29.058;-110.966;2022-12-29T15:57:58;9.65;;;3.90;;
64244;SDS011;50584;29.058;-110.966;2022-12-29T16:00:31;3.78;;;2.95;;
64244;SDS011;50584;29.058;-110.966;2022-12-29T16:02:59;11.45;;;3.75;;
64244;SDS011;50584;29.058;-110.966;2022-12-29T16:05:31;15.45;;;3.42;;
64244;SDS011;50584;29.058;-110.966;2022-12-29T16:07:58;14.60;;;4.03;;
64244;SDS011;50584;29.058;-110.966;2022-12-29T16:10:37;9.85;;;3.38;;
64244;SDS011;50584;29.058;-110.966;2022-12-29T16:13:17;9.60;;;3.22;;
64244;SDS011;50584;29.058;-110.966;2022-12-29T16:15:47;9.82;;;3.83;;
64244;SDS011;50584;29.058;-110.966;2022-12-29T16:18:23;14.45;;;3.50;;
64244;SDS011;50584;29.058;-110.966;2022-12-29T16:20:51;11.75;;;3.20;;
64244;SDS011;50584;29.058;-110.966;2022-12-29T16:23:21;11.27;;;3.03;;
64244;SDS011;50584;29.058;-110.966;2022-12-29T16:25:48;2.72;;;2.50;;
64244;SDS011;50584;29.058;-110.966;2022-12-29T16:28:15;4.20;;;2.40;;
64244;SDS011;50584;29.058;-110.966;2022-12-29T16:30:42;16.33;;;3.25;;